sensor_id;sensor_type;location;lat;lon;timestamp;P1;durP1;ratioP1;P2;durP2;ratioP2
16139;SDS011;8175;49.326;12.690;2023-08-21T05:26:06;11.73;;;10.80;;
16139;SDS011;8175;49.326;12.690;2023-08-21T05:28:31;10.97;;;10.03;;
16139;SDS011;8175;49.326;12.690;2023-08-21T05:30:57;11.50;;;10.47;;
16139;SDS011;8175;49.326;12.690;2023-08-21T05:33:23;11.90;;;10.80;;
16139;SDS011;8175;49.326;12.690;2023-08-21T05:35:49;9.30;;;8.60;;
16139;SDS011;8175;49.326;12.690;2023-08-21T05:38:14;10.13;;;9.27;;
16139;SDS011;8175;49.326;12.690;2023-08-21T05:40:40;10.05;;;9.23;;
16139;SDS011;8175;49.326;12.690;2023-08-21T05:43:07;10.85;;;9.95;;
16139;SDS011;8175;49.326;12.690;2023-08-21T05:45:33;10.63;;;9.73;;
16139;SDS011;8175;49.326;12.690;2023-08-21T05:47:59;10.07;;;9.27;;
16139;SDS011;8175;49.326;12.690;2023-08-21T05:50:24;8.93;;;8.27;;
16139;SDS011;8175;49.326;12.690;2023-08-21T05:52:50;10.48;;;9.57;;
16139;SDS011;8175;49.326;12.690;2023-08-21T05:55:15;10.43;;;9.50;;
16139;SDS011;8175;49.326;12.690;2023-08-21T05:57:43;10.25;;;8.60;;
16139;SDS011;8175;49.326;12.690;2023-08-21T06:00:08;9.10;;;8.32;;
16139;SDS011;8175;49.326;12.690;2023-08-21T06:02:34;9.30;;;8.55;;
16139;SDS011;8175;49.326;12.690;2023-08-21T06:05:00;9.57;;;8.68;;
16139;SDS011;8175;49.326;12.690;2023-08-21T06:07:26;8.73;;;7.93;;
16139;SDS011;8175;49.326;12.690;2023-08-21T06:09:51;10.85;;;8.95;;
16139;SDS011;8175;49.326;12.690;2023-08-21T06:12:18;8.88;;;8.18;;
16139;SDS011;8175;49.326;12.690;2023-08-21T06:14:44;9.18;;;8.45;;
16139;SDS011;8175;49.326;12.690;2023-08-21T06:17:09;10.25;;;9.27;;
16139;SDS011;8175;49.326;12.690;2023-08-21T06:19:35;8.70;;;8.00;;
16139;SDS011;8175;49.326;12.690;2023-08-21T06:22:01;9.15;;;8.35;;
16139;SDS011;8175;49.326;12.690;2023-08-21T06:24:27;8.10;;;7.30;;
16139;SDS011;8175;49.326;12.690;2023-08-21T06:26:53;9.43;;;8.55;;
16139;SDS011;8175;49.326;12.690;2023-08-21T06:29:18;7.82;;;7.22;;
16139;SDS011;8175;49.326;12.690;2023-08-21T06:31:45;7.65;;;7.05;;
16139;SDS011;8175;49.326;12.690;2023-08-21T06:34:11;7.68;;;7.07;;
16139;SDS011;8175;49.326;12.690;2023-08-21T06:36:37;8.57;;;7.80;;
16139;SDS011;8175;49.326;12.690;2023-08-21T06:39:03;9.40;;;8.32;;
16139;SDS011;8175;49.326;12.690;2023-08-21T06:41:28;9.80;;;8.90;;
16139;SDS011;8175;49.326;12.690;2023-08-21T06:43:54;9.75;;;8.95;;
16139;SDS011;8175;49.326;12.690;2023-08-21T06:46:20;9.05;;;8.30;;
16139;SDS011;8175;49.326;12.690;2023-08-21T06:48:46;10.85;;;9.85;;
16139;SDS011;8175;49.326;12.690;2023-08-21T06:51:12;9.82;;;9.05;;
16139;SDS011;8175;49.326;12.690;2023-08-21T06:53:37;10.65;;;9.60;;
16139;SDS011;8175;49.326;12.690;2023-08-21T06:56:03;10.57;;;9.68;;
16139;SDS011;8175;49.326;12.690;2023-08-21T06:58:29;10.38;;;9.48;;
16139;SDS011;8175;49.326;12.690;2023-08-21T07:00:54;11.73;;;10.80;;
16139;SDS011;8175;49.326;12.690;2023-08-21T07:03:23;12.77;;;11.70;;
16139;SDS011;8175;49.326;12.690;2023-08-21T07:05:55;12.70;;;11.50;;
16139;SDS011;8175;49.326;12.690;2023-08-21T07:08:25;13.40;;;12.20;;
16139;SDS011;8175;49.326;12.690;2023-08-21T07:10:51;12.98;;;11.77;;
16139;SDS011;8175;49.326;12.690;2023-08-21T07:13:18;14.15;;;12.75;;
16139;SDS011;8175;49.326;12.690;2023-08-21T07:15:44;12.10;;;11.00;;
16139;SDS011;8175;49.326;12.690;2023-08-21T07:18:10;12.52;;;11.32;;
16139;SDS011;8175;49.326;12.690;2023-08-21T07:20:36;12.05;;;11.05;;
16139;SDS011;8175;49.326;12.690;2023-08-21T07:23:01;12.30;;;11.30;;
16139;SDS011;8175;49.326;12.690;2023-08-21T07:25:27;11.40;;;10.48;;
16139;SDS011;8175;49.326;12.690;2023-08-21T07:27:56;10.25;;;9.45;;
16139;SDS011;8175;49.326;12.690;2023-08-21T07:30:21;11.25;;;10.27;;
16139;SDS011;8175;49.326;12.690;2023-08-21T07:32:48;12.43;;;10.82;;
16139;SDS011;8175;49.326;12.690;2023-08-21T07:35:14;11.88;;;10.68;;
16139;SDS011;8175;49.326;12.690;2023-08-21T07:37:43;10.38;;;9.45;;
16139;SDS011;8175;49.326;12.690;2023-08-21T07:40:10;11.15;;;10.13;;
16139;SDS011;8175;49.326;12.690;2023-08-21T07:42:36;10.88;;;9.88;;
16139;SDS011;8175;49.326;12.690;2023-08-21T07:45:01;9.60;;;8.70;;
16139;SDS011;8175;49.326;12.690;2023-08-21T07:47:27;9.50;;;8.50;;
16139;SDS011;8175;49.326;12.690;2023-08-21T07:49:53;9.18;;;8.38;;
16139;SDS011;8175;49.326;12.690;2023-08-21T07:52:19;8.10;;;7.30;;
16139;SDS011;8175;49.326;12.690;2023-08-21T07:54:45;7.80;;;7.10;;
16139;SDS011;8175;49.326;12.690;2023-08-21T07:57:11;8.55;;;7.72;;
16139;SDS011;8175;49.326;12.690;2023-08-21T07:59:38;7.60;;;6.95;;
16139;SDS011;8175;49.326;12.690;2023-08-21T08:02:03;7.78;;;7.07;;
16139;SDS011;8175;49.326;12.690;2023-08-21T08:04:29;8.00;;;7.40;;
16139;SDS011;8175;49.326;12.690;2023-08-21T08:06:55;6.88;;;6.25;;
16139;SDS011;8175;49.326;12.690;2023-08-21T08:09:21;7.50;;;6.30;;
16139;SDS011;8175;49.326;12.690;2023-08-21T08:11:46;6.25;;;5.68;;
16139;SDS011;8175;49.326;12.690;2023-08-21T08:14:12;6.47;;;5.93;;
16139;SDS011;8175;49.326;12.690;2023-08-21T08:16:37;6.63;;;6.03;;
16139;SDS011;8175;49.326;12.690;2023-08-21T08:19:03;6.68;;;6.07;;
16139;SDS011;8175;49.326;12.690;2023-08-21T08:21:29;7.30;;;6.60;;
16139;SDS011;8175;49.326;12.690;2023-08-21T08:23:55;7.82;;;6.80;;
16139;SDS011;8175;49.326;12.690;2023-08-21T08:26:22;7.22;;;6.72;;
16139;SDS011;8175;49.326;12.690;2023-08-21T08:28:47;8.25;;;6.82;;
16139;SDS011;8175;49.326;12.690;2023-08-21T08:31:17;6.80;;;6.30;;
16139;SDS011;8175;49.326;12.690;2023-08-21T08:33:43;7.32;;;6.70;;
16139;SDS011;8175;49.326;12.690;2023-08-21T08:36:09;7.65;;;7.05;;
16139;SDS011;8175;49.326;12.690;2023-08-21T08:38:35;7.32;;;6.57;;
16139;SDS011;8175;49.326;12.690;2023-08-21T08:41:02;7.90;;;7.30;;
16139;SDS011;8175;49.326;12.690;2023-08-21T08:43:31;7.35;;;6.75;;
16139;SDS011;8175;49.326;12.690;2023-08-21T08:46:04;6.90;;;6.40;;
16139;SDS011;8175;49.326;12.690;2023-08-21T08:48:32;7.10;;;6.50;;
16139;SDS011;8175;49.326;12.690;2023-08-21T08:50:59;6.70;;;6.18;;
16139;SDS011;8175;49.326;12.690;2023-08-21T08:53:25;7.32;;;6.82;;
16139;SDS011;8175;49.326;12.690;2023-08-21T08:55:53;6.97;;;6.47;;
16139;SDS011;8175;49.326;12.690;2023-08-21T08:58:19;7.68;;;7.07;;
16139;SDS011;8175;49.326;12.690;2023-08-21T09:00:44;7.38;;;6.88;;
16139;SDS011;8175;49.326;12.690;2023-08-21T09:03:10;7.25;;;6.75;;
16139;SDS011;8175;49.326;12.690;2023-08-21T09:05:38;7.00;;;6.50;;
16139;SDS011;8175;49.326;12.690;2023-08-21T09:10:36;7.10;;;6.50;;
16139;SDS011;8175;49.326;12.690;2023-08-21T09:13:08;7.15;;;6.53;;
16139;SDS011;8175;49.326;12.690;2023-08-21T09:15:35;7.63;;;6.93;;
16139;SDS011;8175;49.326;12.690;2023-08-21T09:18:01;6.95;;;6.40;;
16139;SDS011;8175;49.326;12.690;2023-08-21T09:20:27;7.95;;;7.28;;
16139;SDS011;8175;49.326;12.690;2023-08-21T09:22:59;7.97;;;7.22;;
16139;SDS011;8175;49.326;12.690;2023-08-21T09:25:25;7.43;;;6.82;;
16139;SDS011;8175;49.326;12.690;2023-08-21T09:27:51;7.75;;;7.00;;
16139;SDS011;8175;49.326;12.690;2023-08-21T09:30:18;7.57;;;7.07;;
16139;SDS011;8175;49.326;12.690;2023-08-21T09:35:20;7.25;;;6.75;;
16139;SDS011;8175;49.326;12.690;2023-08-21T09:37:48;7.15;;;6.55;;
16139;SDS011;8175;49.326;12.690;2023-08-21T09:40:17;8.07;;;6.90;;
16139;SDS011;8175;49.326;12.690;2023-08-21T09:42:42;6.78;;;6.28;;
16139;SDS011;8175;49.326;12.690;2023-08-21T09:45:08;7.07;;;6.45;;
16139;SDS011;8175;49.326;12.690;2023-08-21T09:47:34;7.22;;;6.60;;
16139;SDS011;8175;49.326;12.690;2023-08-21T09:50:00;7.00;;;6.50;;
16139;SDS011;8175;49.326;12.690;2023-08-21T09:52:26;7.05;;;6.45;;
16139;SDS011;8175;49.326;12.690;2023-08-21T09:54:53;6.90;;;6.43;;
16139;SDS011;8175;49.326;12.690;2023-08-21T09:57:20;7.18;;;6.57;;
16139;SDS011;8175;49.326;12.690;2023-08-21T09:59:48;6.97;;;6.47;;
16139;SDS011;8175;49.326;12.690;2023-08-21T10:02:18;6.97;;;6.53;;
16139;SDS011;8175;49.326;12.690;2023-08-21T10:04:44;6.65;;;6.15;;
16139;SDS011;8175;49.326;12.690;2023-08-21T10:07:12;6.45;;;5.95;;
16139;SDS011;8175;49.326;12.690;2023-08-21T10:09:39;5.63;;;5.15;;
16139;SDS011;8175;49.326;12.690;2023-08-21T10:12:08;6.25;;;5.85;;
16139;SDS011;8175;49.326;12.690;2023-08-21T10:14:34;6.93;;;6.10;;
16139;SDS011;8175;49.326;12.690;2023-08-21T10:17:01;6.57;;;6.07;;
16139;SDS011;8175;49.326;12.690;2023-08-21T10:19:31;6.50;;;6.00;;
16139;SDS011;8175;49.326;12.690;2023-08-21T10:21:57;6.63;;;6.07;;
16139;SDS011;8175;49.326;12.690;2023-08-21T10:24:27;5.95;;;5.55;;
16139;SDS011;8175;49.326;12.690;2023-08-21T10:27:03;6.25;;;5.85;;
16139;SDS011;8175;49.326;12.690;2023-08-21T10:29:29;6.93;;;6.43;;
16139;SDS011;8175;49.326;12.690;2023-08-21T10:32:03;8.70;;;6.50;;
16139;SDS011;8175;49.326;12.690;2023-08-21T10:34:36;7.05;;;6.55;;
16139;SDS011;8175;49.326;12.690;2023-08-21T10:37:03;6.53;;;6.03;;
16139;SDS011;8175;49.326;12.690;2023-08-21T10:39:35;6.43;;;5.93;;
16139;SDS011;8175;49.326;12.690;2023-08-21T10:42:09;6.63;;;6.10;;
16139;SDS011;8175;49.326;12.690;2023-08-21T10:49:45;7.22;;;6.65;;
16139;SDS011;8175;49.326;12.690;2023-08-21T10:52:12;6.63;;;6.13;;
16139;SDS011;8175;49.326;12.690;2023-08-21T10:54:42;5.97;;;5.57;;
16139;SDS011;8175;49.326;12.690;2023-08-21T10:57:11;6.22;;;5.82;;
16139;SDS011;8175;49.326;12.690;2023-08-21T10:59:36;6.10;;;5.60;;
16139;SDS011;8175;49.326;12.690;2023-08-21T11:02:02;7.18;;;6.65;;
16139;SDS011;8175;49.326;12.690;2023-08-21T11:04:28;6.65;;;6.20;;
16139;SDS011;8175;49.326;12.690;2023-08-21T11:06:54;6.75;;;6.18;;
16139;SDS011;8175;49.326;12.690;2023-08-21T11:09:21;6.97;;;6.47;;
16139;SDS011;8175;49.326;12.690;2023-08-21T11:11:47;6.53;;;6.13;;
16139;SDS011;8175;49.326;12.690;2023-08-21T11:14:13;6.47;;;6.00;;
16139;SDS011;8175;49.326;12.690;2023-08-21T11:16:38;6.65;;;6.25;;
16139;SDS011;8175;49.326;12.690;2023-08-21T11:19:04;6.25;;;5.75;;
16139;SDS011;8175;49.326;12.690;2023-08-21T11:21:32;6.13;;;5.72;;
16139;SDS011;8175;49.326;12.690;2023-08-21T11:23:58;6.28;;;5.75;;
16139;SDS011;8175;49.326;12.690;2023-08-21T11:26:24;6.82;;;6.32;;
16139;SDS011;8175;49.326;12.690;2023-08-21T11:28:50;6.90;;;6.32;;
16139;SDS011;8175;49.326;12.690;2023-08-21T11:31:16;6.72;;;6.22;;
16139;SDS011;8175;49.326;12.690;2023-08-21T11:33:48;7.15;;;6.53;;
16139;SDS011;8175;49.326;12.690;2023-08-21T11:36:15;6.50;;;6.10;;
16139;SDS011;8175;49.326;12.690;2023-08-21T11:38:40;9.93;;;6.75;;
16139;SDS011;8175;49.326;12.690;2023-08-21T11:41:06;5.75;;;5.25;;
16139;SDS011;8175;49.326;12.690;2023-08-21T11:43:39;6.13;;;5.68;;
16139;SDS011;8175;49.326;12.690;2023-08-21T11:46:06;6.05;;;5.55;;
16139;SDS011;8175;49.326;12.690;2023-08-21T11:48:33;6.53;;;5.63;;
16139;SDS011;8175;49.326;12.690;2023-08-21T11:51:00;6.00;;;5.60;;
16139;SDS011;8175;49.326;12.690;2023-08-21T11:56:03;6.30;;;5.80;;
16139;SDS011;8175;49.326;12.690;2023-08-21T11:58:41;6.38;;;5.88;;
16139;SDS011;8175;49.326;12.690;2023-08-21T12:01:10;6.30;;;5.72;;
16139;SDS011;8175;49.326;12.690;2023-08-21T12:03:40;6.13;;;5.72;;
16139;SDS011;8175;49.326;12.690;2023-08-21T12:06:09;6.03;;;5.57;;
16139;SDS011;8175;49.326;12.690;2023-08-21T12:08:36;6.60;;;6.10;;
16139;SDS011;8175;49.326;12.690;2023-08-21T12:11:02;6.57;;;5.85;;
16139;SDS011;8175;49.326;12.690;2023-08-21T12:13:29;6.20;;;5.70;;
16139;SDS011;8175;49.326;12.690;2023-08-21T12:15:55;6.28;;;5.85;;
16139;SDS011;8175;49.326;12.690;2023-08-21T12:18:20;6.45;;;6.05;;
16139;SDS011;8175;49.326;12.690;2023-08-21T12:20:46;6.90;;;6.30;;
16139;SDS011;8175;49.326;12.690;2023-08-21T12:23:11;6.85;;;6.35;;
16139;SDS011;8175;49.326;12.690;2023-08-21T12:25:37;7.00;;;6.50;;
16139;SDS011;8175;49.326;12.690;2023-08-21T12:28:03;6.70;;;6.10;;
16139;SDS011;8175;49.326;12.690;2023-08-21T12:30:29;6.20;;;5.60;;
16139;SDS011;8175;49.326;12.690;2023-08-21T12:32:55;6.47;;;6.07;;
16139;SDS011;8175;49.326;12.690;2023-08-21T12:35:21;6.57;;;6.10;;
16139;SDS011;8175;49.326;12.690;2023-08-21T12:37:46;6.38;;;5.78;;
16139;SDS011;8175;49.326;12.690;2023-08-21T12:40:12;6.65;;;6.05;;
16139;SDS011;8175;49.326;12.690;2023-08-21T12:42:38;6.43;;;5.93;;
16139;SDS011;8175;49.326;12.690;2023-08-21T12:45:03;7.32;;;6.82;;
16139;SDS011;8175;49.326;12.690;2023-08-21T12:47:30;6.80;;;6.30;;
16139;SDS011;8175;49.326;12.690;2023-08-21T12:49:55;6.95;;;6.45;;
16139;SDS011;8175;49.326;12.690;2023-08-21T12:52:21;6.97;;;6.47;;
16139;SDS011;8175;49.326;12.690;2023-08-21T12:54:47;6.93;;;6.22;;
16139;SDS011;8175;49.326;12.690;2023-08-21T12:57:13;6.85;;;6.25;;
16139;SDS011;8175;49.326;12.690;2023-08-21T12:59:39;7.40;;;6.80;;
16139;SDS011;8175;49.326;12.690;2023-08-21T13:02:04;6.72;;;6.22;;
16139;SDS011;8175;49.326;12.690;2023-08-21T13:04:30;6.72;;;6.13;;
16139;SDS011;8175;49.326;12.690;2023-08-21T13:06:56;7.38;;;6.78;;
16139;SDS011;8175;49.326;12.690;2023-08-21T13:09:22;7.53;;;6.82;;
16139;SDS011;8175;49.326;12.690;2023-08-21T13:11:53;7.55;;;6.95;;
16139;SDS011;8175;49.326;12.690;2023-08-21T13:14:19;7.30;;;6.65;;
16139;SDS011;8175;49.326;12.690;2023-08-21T13:16:44;7.10;;;6.38;;
16139;SDS011;8175;49.326;12.690;2023-08-21T13:19:10;7.20;;;6.68;;
16139;SDS011;8175;49.326;12.690;2023-08-21T13:21:36;7.03;;;6.38;;
16139;SDS011;8175;49.326;12.690;2023-08-21T13:24:02;7.10;;;6.40;;
16139;SDS011;8175;49.326;12.690;2023-08-21T13:26:29;8.05;;;6.50;;
16139;SDS011;8175;49.326;12.690;2023-08-21T13:28:56;6.10;;;5.30;;
16139;SDS011;8175;49.326;12.690;2023-08-21T13:31:22;6.28;;;5.78;;
16139;SDS011;8175;49.326;12.690;2023-08-21T13:33:48;5.75;;;5.25;;
16139;SDS011;8175;49.326;12.690;2023-08-21T13:36:16;6.35;;;5.72;;
16139;SDS011;8175;49.326;12.690;2023-08-21T13:38:43;6.03;;;5.53;;
16139;SDS011;8175;49.326;12.690;2023-08-21T13:41:09;5.93;;;5.53;;
16139;SDS011;8175;49.326;12.690;2023-08-21T13:43:36;6.47;;;5.60;;
16139;SDS011;8175;49.326;12.690;2023-08-21T13:46:01;5.95;;;5.50;;
16139;SDS011;8175;49.326;12.690;2023-08-21T13:48:31;6.65;;;5.57;;
16139;SDS011;8175;49.326;12.690;2023-08-21T13:50:57;6.38;;;5.78;;
16139;SDS011;8175;49.326;12.690;2023-08-21T13:53:22;6.80;;;5.55;;
16139;SDS011;8175;49.326;12.690;2023-08-21T13:55:49;5.45;;;5.05;;
16139;SDS011;8175;49.326;12.690;2023-08-21T13:58:15;8.00;;;6.38;;
16139;SDS011;8175;49.326;12.690;2023-08-21T14:00:41;6.18;;;5.40;;
16139;SDS011;8175;49.326;12.690;2023-08-21T14:03:06;7.85;;;5.80;;
16139;SDS011;8175;49.326;12.690;2023-08-21T14:05:32;5.22;;;4.82;;
16139;SDS011;8175;49.326;12.690;2023-08-21T14:07:58;5.15;;;4.68;;
16139;SDS011;8175;49.326;12.690;2023-08-21T14:10:24;5.18;;;4.78;;
16139;SDS011;8175;49.326;12.690;2023-08-21T14:12:51;5.70;;;5.30;;
16139;SDS011;8175;49.326;12.690;2023-08-21T14:15:17;5.30;;;4.80;;
16139;SDS011;8175;49.326;12.690;2023-08-21T14:17:45;5.50;;;5.10;;
16139;SDS011;8175;49.326;12.690;2023-08-21T14:20:11;5.75;;;4.53;;
16139;SDS011;8175;49.326;12.690;2023-08-21T14:22:37;4.80;;;4.38;;
16139;SDS011;8175;49.326;12.690;2023-08-21T14:25:03;5.13;;;4.72;;
16139;SDS011;8175;49.326;12.690;2023-08-21T14:27:30;5.07;;;4.68;;
16139;SDS011;8175;49.326;12.690;2023-08-21T14:29:56;6.80;;;4.60;;
16139;SDS011;8175;49.326;12.690;2023-08-21T14:32:22;7.00;;;4.78;;
16139;SDS011;8175;49.326;12.690;2023-08-21T14:34:48;5.63;;;5.13;;
16139;SDS011;8175;49.326;12.690;2023-08-21T14:37:13;5.18;;;4.72;;
16139;SDS011;8175;49.326;12.690;2023-08-21T14:39:41;5.38;;;4.88;;
16139;SDS011;8175;49.326;12.690;2023-08-21T14:42:08;5.28;;;4.78;;
16139;SDS011;8175;49.326;12.690;2023-08-21T14:44:33;5.45;;;4.95;;
16139;SDS011;8175;49.326;12.690;2023-08-21T14:46:59;5.20;;;4.78;;
16139;SDS011;8175;49.326;12.690;2023-08-21T14:49:25;5.43;;;5.03;;
16139;SDS011;8175;49.326;12.690;2023-08-21T14:51:50;5.10;;;4.57;;
16139;SDS011;8175;49.326;12.690;2023-08-21T14:54:17;4.88;;;4.47;;
16139;SDS011;8175;49.326;12.690;2023-08-21T14:56:43;5.35;;;4.95;;
16139;SDS011;8175;49.326;12.690;2023-08-21T14:59:08;5.03;;;4.63;;
16139;SDS011;8175;49.326;12.690;2023-08-21T15:01:38;5.00;;;4.60;;
16139;SDS011;8175;49.326;12.690;2023-08-21T15:04:04;4.88;;;4.47;;
16139;SDS011;8175;49.326;12.690;2023-08-21T15:06:30;5.60;;;5.05;;
16139;SDS011;8175;49.326;12.690;2023-08-21T15:08:56;5.05;;;4.65;;
16139;SDS011;8175;49.326;12.690;2023-08-21T15:11:22;5.43;;;4.80;;
16139;SDS011;8175;49.326;12.690;2023-08-21T15:13:47;5.18;;;4.70;;
16139;SDS011;8175;49.326;12.690;2023-08-21T15:16:13;5.63;;;5.07;;
16139;SDS011;8175;49.326;12.690;2023-08-21T15:18:39;5.78;;;5.30;;
16139;SDS011;8175;49.326;12.690;2023-08-21T15:21:04;6.20;;;5.57;;
16139;SDS011;8175;49.326;12.690;2023-08-21T15:23:30;6.13;;;4.90;;
16139;SDS011;8175;49.326;12.690;2023-08-21T15:25:56;4.93;;;4.53;;
16139;SDS011;8175;49.326;12.690;2023-08-21T15:28:21;6.35;;;5.25;;
16139;SDS011;8175;49.326;12.690;2023-08-21T15:30:47;6.38;;;5.45;;
16139;SDS011;8175;49.326;12.690;2023-08-21T15:33:13;5.47;;;4.97;;
16139;SDS011;8175;49.326;12.690;2023-08-21T15:35:38;5.05;;;4.65;;
16139;SDS011;8175;49.326;12.690;2023-08-21T15:38:04;6.28;;;5.10;;
16139;SDS011;8175;49.326;12.690;2023-08-21T15:40:30;7.40;;;5.05;;
16139;SDS011;8175;49.326;12.690;2023-08-21T15:42:56;5.20;;;4.70;;
16139;SDS011;8175;49.326;12.690;2023-08-21T15:45:26;5.95;;;5.00;;
16139;SDS011;8175;49.326;12.690;2023-08-21T15:47:52;5.63;;;5.05;;
16139;SDS011;8175;49.326;12.690;2023-08-21T15:50:17;6.18;;;5.60;;
16139;SDS011;8175;49.326;12.690;2023-08-21T15:52:45;8.77;;;5.38;;
16139;SDS011;8175;49.326;12.690;2023-08-21T15:55:11;5.18;;;4.78;;
16139;SDS011;8175;49.326;12.690;2023-08-21T15:57:37;6.07;;;5.28;;
16139;SDS011;8175;49.326;12.690;2023-08-21T16:00:03;6.22;;;5.47;;
16139;SDS011;8175;49.326;12.690;2023-08-21T16:02:30;7.60;;;5.30;;
16139;SDS011;8175;49.326;12.690;2023-08-21T16:04:56;6.40;;;5.80;;
16139;SDS011;8175;49.326;12.690;2023-08-21T16:07:22;9.93;;;5.45;;
16139;SDS011;8175;49.326;12.690;2023-08-21T16:09:47;5.63;;;5.13;;
16139;SDS011;8175;49.326;12.690;2023-08-21T16:12:13;5.40;;;4.97;;
16139;SDS011;8175;49.326;12.690;2023-08-21T16:14:39;5.63;;;5.13;;
16139;SDS011;8175;49.326;12.690;2023-08-21T16:17:04;6.00;;;5.50;;
16139;SDS011;8175;49.326;12.690;2023-08-21T16:19:32;6.05;;;5.43;;
16139;SDS011;8175;49.326;12.690;2023-08-21T16:21:58;6.30;;;5.68;;
16139;SDS011;8175;49.326;12.690;2023-08-21T16:24:24;5.60;;;5.10;;
16139;SDS011;8175;49.326;12.690;2023-08-21T16:26:49;5.82;;;5.32;;
16139;SDS011;8175;49.326;12.690;2023-08-21T16:29:15;6.63;;;5.40;;
16139;SDS011;8175;49.326;12.690;2023-08-21T16:31:43;5.90;;;5.32;;
16139;SDS011;8175;49.326;12.690;2023-08-21T16:34:09;7.57;;;5.15;;
16139;SDS011;8175;49.326;12.690;2023-08-21T16:36:35;5.90;;;5.32;;
16139;SDS011;8175;49.326;12.690;2023-08-21T16:39:01;8.95;;;5.93;;
16139;SDS011;8175;49.326;12.690;2023-08-21T16:41:28;7.47;;;5.80;;
16139;SDS011;8175;49.326;12.690;2023-08-21T16:43:53;5.93;;;5.30;;
16139;SDS011;8175;49.326;12.690;2023-08-21T16:46:19;5.80;;;4.90;;
16139;SDS011;8175;49.326;12.690;2023-08-21T16:48:44;5.72;;;5.22;;
16139;SDS011;8175;49.326;12.690;2023-08-21T16:51:10;7.70;;;6.30;;
16139;SDS011;8175;49.326;12.690;2023-08-21T16:53:36;9.15;;;5.90;;
16139;SDS011;8175;49.326;12.690;2023-08-21T16:56:01;6.90;;;5.40;;
16139;SDS011;8175;49.326;12.690;2023-08-21T16:58:28;7.10;;;6.20;;
16139;SDS011;8175;49.326;12.690;2023-08-21T17:00:53;6.43;;;5.32;;
16139;SDS011;8175;49.326;12.690;2023-08-21T17:03:19;6.78;;;5.97;;
16139;SDS011;8175;49.326;12.690;2023-08-21T17:05:45;7.30;;;6.45;;
16139;SDS011;8175;49.326;12.690;2023-08-21T17:08:11;9.45;;;6.22;;
16139;SDS011;8175;49.326;12.690;2023-08-21T17:10:37;7.70;;;6.00;;
16139;SDS011;8175;49.326;12.690;2023-08-21T17:13:03;7.82;;;6.05;;
16139;SDS011;8175;49.326;12.690;2023-08-21T17:15:29;6.43;;;5.82;;
16139;SDS011;8175;49.326;12.690;2023-08-21T17:17:54;8.43;;;6.65;;
16139;SDS011;8175;49.326;12.690;2023-08-21T17:20:20;9.13;;;6.38;;
16139;SDS011;8175;49.326;12.690;2023-08-21T17:22:46;7.10;;;6.35;;
16139;SDS011;8175;49.326;12.690;2023-08-21T17:25:11;7.43;;;6.72;;
16139;SDS011;8175;49.326;12.690;2023-08-21T17:27:37;6.35;;;5.85;;
16139;SDS011;8175;49.326;12.690;2023-08-21T17:30:04;7.25;;;6.07;;
16139;SDS011;8175;49.326;12.690;2023-08-21T17:32:30;7.00;;;6.30;;
16139;SDS011;8175;49.326;12.690;2023-08-21T17:34:56;6.28;;;5.68;;
16139;SDS011;8175;49.326;12.690;2023-08-21T17:37:22;7.30;;;5.93;;
16139;SDS011;8175;49.326;12.690;2023-08-21T17:39:47;6.95;;;6.32;;
16139;SDS011;8175;49.326;12.690;2023-08-21T17:42:13;7.18;;;6.30;;
16139;SDS011;8175;49.326;12.690;2023-08-21T17:44:39;7.78;;;5.82;;
16139;SDS011;8175;49.326;12.690;2023-08-21T17:47:06;8.88;;;6.45;;
16139;SDS011;8175;49.326;12.690;2023-08-21T17:49:32;8.15;;;6.63;;
16139;SDS011;8175;49.326;12.690;2023-08-21T17:51:57;9.65;;;5.95;;
16139;SDS011;8175;49.326;12.690;2023-08-21T17:54:23;7.03;;;6.35;;
16139;SDS011;8175;49.326;12.690;2023-08-21T17:56:49;7.18;;;6.55;;
16139;SDS011;8175;49.326;12.690;2023-08-21T17:59:15;8.35;;;6.80;;
16139;SDS011;8175;49.326;12.690;2023-08-21T18:01:41;8.02;;;6.75;;
16139;SDS011;8175;49.326;12.690;2023-08-21T18:04:08;8.73;;;6.43;;
16139;SDS011;8175;49.326;12.690;2023-08-21T18:06:33;6.97;;;6.38;;
16139;SDS011;8175;49.326;12.690;2023-08-21T18:08:59;6.15;;;5.55;;
16139;SDS011;8175;49.326;12.690;2023-08-21T18:11:25;6.65;;;6.05;;
16139;SDS011;8175;49.326;12.690;2023-08-21T18:13:50;6.68;;;5.97;;
16139;SDS011;8175;49.326;12.690;2023-08-21T18:16:16;7.05;;;5.85;;
16139;SDS011;8175;49.326;12.690;2023-08-21T18:18:44;6.50;;;6.00;;
16139;SDS011;8175;49.326;12.690;2023-08-21T18:21:13;7.97;;;6.05;;
16139;SDS011;8175;49.326;12.690;2023-08-21T18:23:38;6.85;;;6.20;;
16139;SDS011;8175;49.326;12.690;2023-08-21T18:26:04;6.38;;;5.88;;
16139;SDS011;8175;49.326;12.690;2023-08-21T18:28:30;6.85;;;6.05;;
16139;SDS011;8175;49.326;12.690;2023-08-21T18:30:57;6.95;;;6.22;;
16139;SDS011;8175;49.326;12.690;2023-08-21T18:33:24;7.43;;;6.10;;
16139;SDS011;8175;49.326;12.690;2023-08-21T18:35:50;6.78;;;6.10;;
16139;SDS011;8175;49.326;12.690;2023-08-21T18:38:17;7.88;;;6.32;;
16139;SDS011;8175;49.326;12.690;2023-08-21T18:40:43;8.43;;;6.75;;
16139;SDS011;8175;49.326;12.690;2023-08-21T18:43:09;7.03;;;6.43;;
16139;SDS011;8175;49.326;12.690;2023-08-21T18:45:36;9.18;;;6.80;;
16139;SDS011;8175;49.326;12.690;2023-08-21T18:48:02;7.07;;;6.45;;
16139;SDS011;8175;49.326;12.690;2023-08-21T18:50:34;6.72;;;6.15;;
16139;SDS011;8175;49.326;12.690;2023-08-21T18:53:02;6.72;;;6.03;;
16139;SDS011;8175;49.326;12.690;2023-08-21T18:55:29;6.70;;;5.95;;
16139;SDS011;8175;49.326;12.690;2023-08-21T18:57:56;7.20;;;6.50;;
16139;SDS011;8175;49.326;12.690;2023-08-21T19:00:22;7.25;;;6.32;;
16139;SDS011;8175;49.326;12.690;2023-08-21T19:02:49;8.73;;;6.72;;
16139;SDS011;8175;49.326;12.690;2023-08-21T19:05:14;9.95;;;6.93;;
16139;SDS011;8175;49.326;12.690;2023-08-21T19:07:40;8.50;;;6.30;;
16139;SDS011;8175;49.326;12.690;2023-08-21T19:10:06;7.00;;;6.32;;
16139;SDS011;8175;49.326;12.690;2023-08-21T19:12:33;7.03;;;5.95;;
16139;SDS011;8175;49.326;12.690;2023-08-21T19:14:59;7.13;;;6.13;;
16139;SDS011;8175;49.326;12.690;2023-08-21T19:17:28;8.35;;;6.50;;
16139;SDS011;8175;49.326;12.690;2023-08-21T19:19:54;6.30;;;5.78;;
16139;SDS011;8175;49.326;12.690;2023-08-21T19:22:20;6.55;;;5.97;;
16139;SDS011;8175;49.326;12.690;2023-08-21T19:24:49;7.57;;;6.57;;
16139;SDS011;8175;49.326;12.690;2023-08-21T19:27:16;7.60;;;6.90;;
16139;SDS011;8175;49.326;12.690;2023-08-21T19:29:43;7.68;;;6.97;;
16139;SDS011;8175;49.326;12.690;2023-08-21T19:32:10;6.55;;;5.97;;
16139;SDS011;8175;49.326;12.690;2023-08-21T19:34:36;6.60;;;6.00;;
16139;SDS011;8175;49.326;12.690;2023-08-21T19:37:02;7.20;;;6.50;;
16139;SDS011;8175;49.326;12.690;2023-08-21T19:39:28;7.13;;;6.22;;
16139;SDS011;8175;49.326;12.690;2023-08-21T19:41:55;7.47;;;6.75;;
16139;SDS011;8175;49.326;12.690;2023-08-21T19:44:20;7.53;;;6.35;;
16139;SDS011;8175;49.326;12.690;2023-08-21T19:46:46;7.13;;;6.47;;
16139;SDS011;8175;49.326;12.690;2023-08-21T19:49:12;7.47;;;6.78;;
16139;SDS011;8175;49.326;12.690;2023-08-21T19:51:40;6.78;;;6.07;;
16139;SDS011;8175;49.326;12.690;2023-08-21T19:54:06;8.00;;;6.50;;
16139;SDS011;8175;49.326;12.690;2023-08-21T19:56:32;7.07;;;6.38;;
16139;SDS011;8175;49.326;12.690;2023-08-21T19:58:57;6.35;;;5.85;;
16139;SDS011;8175;49.326;12.690;2023-08-21T20:01:23;10.82;;;6.60;;
16139;SDS011;8175;49.326;12.690;2023-08-21T20:03:49;8.02;;;6.47;;
16139;SDS011;8175;49.326;12.690;2023-08-21T20:06:15;7.53;;;6.45;;
16139;SDS011;8175;49.326;12.690;2023-08-21T20:08:41;6.65;;;6.05;;
16139;SDS011;8175;49.326;12.690;2023-08-21T20:11:06;6.78;;;6.07;;
16139;SDS011;8175;49.326;12.690;2023-08-21T20:13:34;9.23;;;6.10;;
16139;SDS011;8175;49.326;12.690;2023-08-21T20:16:00;6.70;;;6.10;;
16139;SDS011;8175;49.326;12.690;2023-08-21T20:18:25;6.68;;;6.05;;